Portada
METAR-TAF:

METAR-TAF

Aeroports :

Sakon Nakhon, Tailàndia

latitud: 17-11-42N, longitud: 104-07-08E, altitud: 161 m

Observació

L'informe es va fer fa 1 hora i 4 minuts, a les 09:00 UTC
Vent 7 kt del Oest, variant entre Sud/Sud-Oest i Nord-Oest
Temperatura 35°C
Humitat 47%
Pressió 1005 hPa
Visibilitat 10 km o més
Cel ennuvolat a una alçada de 3000 ft

METAR: VTUI 190900Z 26007KT 210V310 9999 BKN030 35/22 Q1005 NOSIG

Hora: 17:04 (10:04 UTC)

Pronòstic

L'informe es va fer fa 5 hores i 4 minuts, a les 05:00 UTC
Pronòstic vàlid del 19 a les 06 UTC al 20 a les 06 UTC
Vent 5 kt del Oest
Visibilitat 10 km o més
Escasses núvols a una alçada de 3000 ft

TAF: VTUI 190500Z 1906/2006 26005KT 9999 FEW030

Observacions i pronòstics meteorològics de més de 4000 aeroports (METAR i TAF).

Les estacions disponibles són els punts grocs i vermells al mapa.

Posi el ratolí al punt desitjat per veure el nom de l'estació.

Feu clic per veure les observacions i els pronòstics meteorològics.

Per canviar el mapa: feu clic els botons verds amb una creu de color negre per apropar; al botó verd amb un guió per allunyar la imatge; o en les fletxes verdes per a mapes adjacents.


METAR-TAF: